ADDS METAR Data INFO
IDs: Format: Raw Decoded Include TAF

Data at: 0631 UTC 15 Dec 2017

METAR for:KVDF (Tampa/Executive Arpt, FL, US)
Text:KVDF 150615Z AUTO 19005KT 10SM SCT037 SCT045 OVC070 17/14 A3006 RMK AO2
Temperature: 17.0°C ( 63°F)
Dewpoint: 14.0°C ( 57°F) [RH = 82%]
Pressure (altimeter):30.06 inches Hg (1018.0 mb)
Winds:from the S (190 degrees) at 6 MPH (5 knots; 2.6 m/s)
Visibility:10 or more sm (16+ km)
Ceiling:7000 feet AGL
Clouds: scattered clouds at 3700 feet AGL, scattered clouds at 4500 feet AGL, overcast cloud deck at 7000 feet AGL
QC Flag:automated observation with no human augmentation